Terminal Aerodrome Forecast
Issued by NWS

Home | Current Version | Previous Version | Text Only | Print | Product List | Glossary On
Versions: 1 2 3 4 5 6 7 8 9 10 11 12 13 14 15 16 17
000
FTUS43 KILX 012300
TAFCMI
TAF
KCMI 012329Z 0200/0224 23009KT P6SM VCTS SCT035CB BKN150
     FM020400 23005KT 5SM -RA BR VCTS BKN035CB
     FM021100 VRB05KT 5SM BR BKN035
     FM021500 VRB06KT P6SM SCT030 BKN250=

USA.gov is the U.S. government's official web portal to all federal, state and local government web resources and services.